Time;durP1;ratioP1;P1;durP2;ratioP2;P2;SDS_P1;SDS_P2;PMS_P1;PMS_P2;Temp;Humidity;BMP_temperature;BMP_pressure;BME280_temperature;BME280_humidity;BME280_pressure;Samples;Min_cycle;Max_cycle;Signal;HPM_P1;HPM_P2
2023/01/22 00:05:08;;;;;;;12.02;4.68;;;;;;;11.40;68.48;101262.06;6285778;22;20007;-91
2023/01/22 00:08:04;;;;;;;8.65;3.33;;;;;;;11.57;69.17;101300.75;6304866;22;20031;-92
2023/01/22 00:21:24;;;;;;;7.65;2.42;;;;;;;11.55;68.01;101297.38;6317847;22;20010;-93
2023/01/22 00:24:19;;;;;;;8.23;2.65;;;;;;;11.43;67.61;101284.28;6331606;22;20193;-91
2023/01/22 00:37:37;;;;;;;8.65;2.63;;;;;;;11.37;67.54;101285.72;6302846;22;20011;-88
2023/01/22 00:51:57;;;;;;;7.57;2.53;;;;;;;11.51;68.14;101301.38;6297769;22;20051;-94
2023/01/22 00:55:13;;;;;;;11.23;3.58;;;;;;;11.28;68.51;101289.31;6285445;22;20094;-94
2023/01/22 00:57:55;;;;;;;12.98;2.72;;;;;;;11.39;68.07;101284.56;6289666;22;20026;-93
2023/01/22 01:04:07;;;;;;;6.90;2.28;;;;;;;11.23;68.71;101295.16;6299225;22;20072;-92
2023/01/22 01:07:36;;;;;;;9.98;2.40;;;;;;;11.28;68.75;101303.63;6298702;22;20022;-91
2023/01/22 01:10:46;;;;;;;13.13;2.92;;;;;;;11.44;68.78;101326.34;6300109;22;20019;-91
2023/01/22 01:21:32;;;;;;;14.90;2.58;;;;;;;11.29;69.15;101301.78;6357113;22;20015;-92
2023/01/22 01:45:44;;;;;;;9.70;3.08;;;;;;;11.32;69.82;101329.25;6275821;22;20026;-91
2023/01/22 01:48:38;;;;;;;10.38;2.80;;;;;;;11.40;68.72;101320.41;6270456;22;20007;-91
2023/01/22 02:02:07;;;;;;;7.88;2.88;;;;;;;11.44;67.68;101296.75;6298307;22;20022;-92
2023/01/22 03:22:46;;;;;;;9.57;2.50;;;;;;;11.45;70.83;101328.03;6224093;23;20321;-90
2023/01/22 03:30:47;;;;;;;9.27;2.67;;;;;;;11.48;70.06;101325.91;6271522;22;20016;-91
2023/01/22 03:33:15;;;;;;;12.10;2.60;;;;;;;11.25;70.33;101317.38;6243005;22;20003;-91
2023/01/22 03:44:24;;;;;;;10.45;2.58;;;;;;;11.48;69.50;101333.97;6298485;22;20007;-90
2023/01/22 03:47:13;;;;;;;7.80;2.10;;;;;;;11.35;69.06;101310.09;6296365;22;19992;-91
2023/01/22 03:50:03;;;;;;;8.38;2.28;;;;;;;11.19;69.09;101291.94;6297113;22;20004;-89
2023/01/22 03:58:16;;;;;;;10.43;2.40;;;;;;;11.25;69.19;101305.78;6296757;22;20019;-90
2023/01/22 04:01:35;;;;;;;11.00;2.35;;;;;;;11.40;69.30;101334.75;6203147;22;20458;-91
2023/01/22 04:04:08;;;;;;;5.82;2.15;;;;;;;11.28;69.44;101321.63;6269869;22;20007;-91
2023/01/22 04:07:39;;;;;;;8.32;2.28;;;;;;;11.16;69.31;101316.41;6277016;22;20007;-91
2023/01/22 04:10:31;;;;;;;8.23;2.45;;;;;;;11.11;69.38;101309.81;6298122;22;20041;-92
2023/01/22 04:13:19;;;;;;;8.13;2.30;;;;;;;11.04;69.60;101308.69;6283156;22;20074;-91
2023/01/22 04:16:41;;;;;;;7.63;2.13;;;;;;;11.33;69.45;101343.53;6256531;22;20129;-90
2023/01/22 04:19:11;;;;;;;8.77;2.10;;;;;;;11.34;68.89;101350.66;6273793;22;20016;-92
2023/01/22 04:30:10;;;;;;;6.32;2.10;;;;;;;11.32;68.25;101356.16;6299525;22;20007;-90
2023/01/22 04:35:39;;;;;;;10.73;2.55;;;;;;;11.12;68.57;101350.03;6247183;22;20004;-91
2023/01/22 04:38:32;;;;;;;11.45;2.10;;;;;;;11.25;68.46;101356.91;6209762;23;20027;-92
2023/01/22 05:44:11;;;;;;;8.60;2.28;;;;;;;11.69;65.72;101405.59;6324293;22;20015;-89
2023/01/22 05:46:38;;;;;;;9.55;2.20;;;;;;;11.59;65.90;101401.13;6275760;22;20034;-88
2023/01/22 05:49:28;;;;;;;8.48;2.10;;;;;;;11.75;66.24;101440.00;6300068;22;20065;-90
2023/01/22 05:52:17;;;;;;;9.45;2.30;;;;;;;11.71;66.56;101438.63;6302372;22;20276;-92
2023/01/22 06:14:29;;;;;;;9.85;2.53;;;;;;;11.62;68.22;101456.53;6263400;22;20043;-90
2023/01/22 06:17:27;;;;;;;10.32;2.63;;;;;;;11.44;68.43;101453.75;6291995;22;20045;-91
2023/01/22 06:19:58;;;;;;;9.43;2.58;;;;;;;11.46;68.41;101464.38;6308171;22;20003;-93
2023/01/22 06:40:02;;;;;;;8.73;2.42;;;;;;;11.49;69.61;101491.84;6273449;22;20049;-91
2023/01/22 06:42:48;;;;;;;8.65;2.50;;;;;;;11.57;69.63;101488.44;6230029;23;20027;-79
2023/01/22 06:45:18;;;;;;;11.30;2.40;;;;;;;11.57;69.22;101478.50;6209162;23;19997;-93
2023/01/22 06:50:56;;;;;;;;;;;;;;;11.62;69.75;101505.84;6279836;22;20333;-92
2023/01/22 06:53:46;;;;;;;8.23;2.10;;;;;;;11.59;69.65;101492.69;6286148;22;19911;-90
2023/01/22 07:07:36;;;;;;;7.85;2.10;;;;;;;11.33;70.62;101452.09;6301461;22;20061;-93
2023/01/22 07:10:38;;;;;;;7.93;2.10;;;;;;;11.66;70.86;101513.63;6262000;22;20026;-93
2023/01/22 07:16:46;;;;;;;9.32;2.20;;;;;;;11.81;70.82;101502.22;6321621;22;20011;-89
2023/01/22 07:19:49;;;;;;;9.10;2.10;;;;;;;11.71;70.70;101479.88;6326750;22;20011;-91
2023/01/22 07:22:42;;;;;;;10.05;2.83;;;;;;;11.93;70.54;101478.66;6271198;22;20449;-93
2023/01/22 07:25:27;;;;;;;13.85;2.47;;;;;;;11.99;69.92;101505.03;6205381;22;20168;-91
2023/01/22 07:28:16;;;;;;;;;;;;;;;12.23;70.03;101514.41;6194519;22;20015;-91
2023/01/22 07:30:45;;;;;;;9.73;2.42;;;;;;;12.33;69.16;101509.78;6302536;22;19906;-90
2023/01/22 07:33:36;;;;;;;8.95;2.70;;;;;;;12.13;69.03;101494.75;6323176;22;20010;-90
2023/01/22 07:36:12;;;;;;;9.32;2.70;;;;;;;12.31;68.89;101501.00;6294407;22;20018;-92
2023/01/22 07:38:44;;;;;;;14.60;2.50;;;;;;;12.51;68.83;101533.25;6278547;22;20006;-88
2023/01/22 07:41:09;;;;;;;11.00;2.50;;;;;;;12.65;67.64;101509.28;6275380;22;20017;-86
2023/01/22 07:43:59;;;;;;;7.78;2.30;;;;;;;12.91;66.90;101505.81;6301614;22;19992;-92
2023/01/22 07:49:47;;;;;;;9.07;2.25;;;;;;;13.78;64.12;101531.06;6270852;22;20032;-88
2023/01/22 07:55:10;;;;;;;5.57;2.30;;;;;;;14.92;60.19;101508.94;6310416;22;20255;-86
2023/01/22 07:57:36;;;;;;;10.75;2.50;;;;;;;14.90;59.35;101527.22;6285928;22;20053;-88
2023/01/22 08:00:09;;;;;;;8.10;2.10;;;;;;;14.38;60.68;101516.63;6269757;22;19999;-86
2023/01/22 08:02:36;;;;;;;9.95;2.50;;;;;;;14.07;61.38;101500.09;6297585;22;20018;-89
2023/01/22 08:05:07;;;;;;;9.57;2.08;;;;;;;14.13;61.21;101504.88;6254759;22;20003;-89
2023/01/22 08:08:04;;;;;;;10.23;2.55;;;;;;;14.32;61.16;101522.69;6292177;22;20008;-90
2023/01/22 08:10:35;;;;;;;7.90;2.50;;;;;;;14.13;61.87;101550.84;6282735;22;20042;-91
2023/01/22 08:13:03;;;;;;;11.55;2.13;;;;;;;13.69;63.10;101511.25;6270409;22;19999;-90
2023/01/22 08:15:30;;;;;;;7.70;2.22;;;;;;;13.80;63.22;101537.16;6247001;22;20000;-90
2023/01/22 08:17:59;;;;;;;12.88;2.88;;;;;;;13.89;62.88;101517.28;6242698;22;20312;-87
2023/01/22 08:20:27;;;;;;;7.95;2.10;;;;;;;13.80;63.10;101528.22;6238866;22;20063;-86
2023/01/22 08:22:58;;;;;;;9.77;2.17;;;;;;;14.25;62.46;101535.16;6235437;22;20015;-85
2023/01/22 08:25:27;;;;;;;10.00;2.30;;;;;;;15.93;57.82;101544.72;6264220;22;20010;-87
2023/01/22 08:49:35;;;;;;;9.63;2.30;;;;;;;16.47;57.11;101574.69;6355739;22;20427;-87
2023/01/22 08:56:21;;;;;;;8.40;2.22;;;;;;;22.03;42.88;101569.31;6354428;22;20017;-87
2023/01/22 08:58:50;;;;;;;10.80;2.80;;;;;;;22.34;40.35;101568.59;6345055;22;20042;-85
2023/01/22 09:01:18;;;;;;;7.28;2.10;;;;;;;21.34;42.09;101561.59;6318446;22;20002;-86
2023/01/22 09:04:14;;;;;;;9.13;2.53;;;;;;;20.83;44.09;101573.94;6301477;22;20018;-86
2023/01/22 09:07:03;;;;;;;14.23;2.63;;;;;;;19.69;46.05;101553.44;6347385;22;19995;-89
2023/01/22 09:13:06;;;;;;;9.73;2.40;;;;;;;18.22;50.27;101548.38;6098650;23;20085;-86
2023/01/22 09:15:32;;;;;;;;;;;;;;;17.81;51.82;101562.44;6243482;23;20000;-86
2023/01/22 09:18:01;;;;;;;10.27;2.40;;;;;;;17.62;52.24;101557.53;6227328;23;19914;-88
2023/01/22 09:20:28;;;;;;;11.88;2.70;;;;;;;17.06;53.92;101568.72;6205179;23;20022;-84
2023/01/22 09:22:54;;;;;;;10.50;2.70;;;;;;;16.13;56.29;101528.88;6227711;23;20000;-86
2023/01/22 09:25:19;;;;;;;;;;;;;;;16.67;57.19;101570.50;6202480;23;20691;-85
2023/01/22 09:27:45;;;;;;;10.45;2.67;;;;;;;16.57;55.91;101550.84;6207819;23;19964;-85
2023/01/22 09:30:11;;;;;;;;;;;;;;;16.79;55.63;101567.41;6192582;23;20115;-83
2023/01/22 09:32:38;;;;;;;11.75;2.50;;;;;;;16.37;56.80;101552.34;6220031;23;19903;-87
2023/01/22 09:35:04;;;;;;;10.88;2.75;;;;;;;16.63;56.69;101562.91;6194348;23;20438;-82
2023/01/22 09:37:30;;;;;;;13.75;3.42;;;;;;;17.50;54.04;101560.69;6194828;23;20004;-84
2023/01/22 09:40:06;;;;;;;11.82;2.70;;;;;;;17.80;52.81;101533.53;6237772;22;20020;-93
2023/01/22 09:42:39;;;;;;;11.82;2.95;;;;;;;19.30;49.69;101557.50;6229075;23;20004;-81
2023/01/22 09:45:35;;;;;;;13.70;3.15;;;;;;;19.91;47.45;101542.44;6215078;23;20004;-85
2023/01/22 09:48:21;;;;;;;17.98;3.42;;;;;;;20.28;45.68;101522.03;6227729;23;20008;-93
2023/01/22 09:50:55;;;;;;;9.93;3.20;;;;;;;19.94;46.63;101537.41;6225650;23;20018;-86
2023/01/22 09:53:25;;;;;;;11.88;2.80;;;;;;;19.45;47.35;101532.88;6232402;23;20450;-83
2023/01/22 09:55:51;;;;;;;12.52;3.08;;;;;;;18.42;49.62;101520.56;6201184;23;20130;-86
2023/01/22 09:58:18;;;;;;;;;;;;;;;18.37;50.36;101556.50;6218704;23;20008;-82
2023/01/22 10:00:58;;;;;;;10.50;2.70;;;;;;;17.20;53.42;101535.31;6241220;23;20316;-83
2023/01/22 10:03:40;;;;;;;13.98;3.20;;;;;;;17.86;53.15;101548.28;6202378;23;20004;-87
2023/01/22 10:06:47;;;;;;;12.90;2.85;;;;;;;17.49;53.45;101520.97;6229011;23;20043;-86
2023/01/22 10:12:13;;;;;;;15.15;3.67;;;;;;;16.83;55.38;101531.56;6246019;22;20002;-82
2023/01/22 10:14:41;;;;;;;15.38;3.80;;;;;;;16.38;56.72;101537.75;6282849;22;20030;-82
2023/01/22 10:17:33;;;;;;;9.90;2.95;;;;;;;16.23;57.65;101529.53;6281150;22;20072;-82
2023/01/22 10:20:03;;;;;;;12.75;3.38;;;;;;;16.56;56.51;101532.91;6303215;22;20006;-83
2023/01/22 10:22:30;;;;;;;9.80;2.80;;;;;;;16.36;56.82;101540.63;6306772;22;20007;-82
2023/01/22 10:24:57;;;;;;;14.25;3.30;;;;;;;16.21;58.04;101558.69;6306827;22;20479;-81
2023/01/22 10:27:54;;;;;;;16.10;3.03;;;;;;;15.74;58.76;101560.38;6307191;22;20060;-82
2023/01/22 10:33:21;;;;;;;13.80;3.15;;;;;;;15.46;59.63;101529.22;6311098;22;20026;-81
2023/01/22 10:35:49;;;;;;;;;;;;;;;15.57;60.03;101550.56;6309190;22;20011;-82
2023/01/22 10:38:25;;;;;;;11.70;2.65;;;;;;;15.24;60.34;101531.63;6343985;22;20243;-82
2023/01/22 10:40:58;;;;;;;10.90;2.72;;;;;;;15.06;61.14;101542.63;6347339;22;20010;-83
2023/01/22 10:43:50;;;;;;;13.55;3.40;;;;;;;14.48;63.37;101543.53;6282064;22;20021;-81
2023/01/22 10:46:23;;;;;;;13.45;2.90;;;;;;;14.89;61.97;101551.75;6277708;22;20010;-82
2023/01/22 10:49:05;;;;;;;15.60;3.72;;;;;;;14.55;63.33;101540.03;6275961;22;20427;-82
2023/01/22 10:51:39;;;;;;;9.60;3.13;;;;;;;14.71;63.06;101555.44;6301354;22;20023;-83
2023/01/22 10:54:27;;;;;;;14.25;3.10;;;;;;;14.80;63.05;101553.63;6251927;22;20332;-83
2023/01/22 10:57:25;;;;;;;12.68;2.90;;;;;;;14.26;64.78;101558.50;6302201;22;20014;-85
2023/01/22 11:00:21;;;;;;;11.98;3.00;;;;;;;14.35;64.71;101549.38;6291453;22;20008;-83
2023/01/22 11:02:47;;;;;;;11.98;2.85;;;;;;;14.08;64.86;101542.38;6303201;22;19995;-81
2023/01/22 11:05:21;;;;;;;12.15;3.10;;;;;;;13.98;65.23;101526.28;6276049;22;19999;-82
2023/01/22 11:08:05;;;;;;;13.90;3.72;;;;;;;14.22;65.64;101551.72;6301575;22;20007;-85
2023/01/22 11:10:58;;;;;;;18.33;5.40;;;;;;;14.34;64.50;101550.41;6302026;22;20082;-84
2023/01/22 11:13:30;;;;;;;11.82;3.38;;;;;;;14.50;64.99;101561.28;6296313;22;20414;-83
2023/01/22 11:16:16;;;;;;;12.07;3.08;;;;;;;14.70;63.70;101559.19;6304407;22;20808;-81
2023/01/22 11:18:51;;;;;;;13.45;3.65;;;;;;;14.48;63.99;101549.78;6303841;22;20227;-81
2023/01/22 11:21:40;;;;;;;14.47;3.60;;;;;;;14.77;63.28;101540.38;6277848;22;20082;-81
2023/01/22 11:25:04;;;;;;;18.58;3.85;;;;;;;14.42;63.11;101527.94;6301532;22;19995;-82
2023/01/22 11:27:50;;;;;;;;;;;;;;;15.23;62.30;101558.88;6303979;22;20404;-84
2023/01/22 11:30:47;;;;;;;12.23;3.20;;;;;;;15.32;61.62;101566.00;6304977;22;20056;-81
2023/01/22 11:33:28;;;;;;;13.30;3.35;;;;;;;14.57;63.11;101542.56;6308828;22;20067;-83
2023/01/22 11:36:15;;;;;;;10.55;3.50;;;;;;;14.97;62.35;101539.06;6308362;22;20137;-78
2023/01/22 11:39:09;;;;;;;15.63;4.80;;;;;;;14.61;63.16;101538.53;6301996;22;20090;-83
2023/01/22 11:41:54;;;;;;;22.33;7.63;;;;;;;14.90;62.63;101546.16;6277686;22;20006;-81
2023/01/22 11:44:38;;;;;;;9.65;3.58;;;;;;;14.75;63.07;101553.28;6279450;22;20029;-81
2023/01/22 11:47:08;;;;;;;9.65;3.30;;;;;;;14.60;63.80;101557.63;6276792;22;20004;-82
2023/01/22 11:49:55;;;;;;;18.90;4.15;;;;;;;14.45;64.83;101560.94;6331907;22;20011;-81
2023/01/22 11:52:42;;;;;;;13.32;3.90;;;;;;;14.27;65.45;101562.91;6308657;22;20003;-83
2023/01/22 11:55:41;;;;;;;13.23;3.22;;;;;;;14.02;66.25;101554.66;6334475;22;19999;-82
2023/01/22 11:58:41;;;;;;;14.55;3.30;;;;;;;13.90;66.18;101546.00;6308574;22;20377;-82
2023/01/22 12:01:16;;;;;;;14.35;3.70;;;;;;;13.96;66.20;101554.50;6311685;22;20391;-82
2023/01/22 12:04:02;;;;;;;10.38;3.92;;;;;;;13.75;67.49;101557.59;6334325;22;20046;-81
2023/01/22 12:06:53;;;;;;;12.77;3.50;;;;;;;13.77;67.44;101560.97;6307510;22;20003;-82
2023/01/22 12:09:55;;;;;;;18.52;3.78;;;;;;;13.43;68.46;101564.47;6333841;22;20034;-82
2023/01/22 12:12:46;;;;;;;16.45;3.88;;;;;;;13.21;68.87;101552.28;6333770;22;20052;-82
2023/01/22 12:15:18;;;;;;;15.25;3.67;;;;;;;13.16;69.43;101557.28;6334529;22;20068;-81
2023/01/22 12:17:59;;;;;;;17.42;3.80;;;;;;;13.26;69.08;101563.47;6280120;22;20006;-82
2023/01/22 12:20:55;;;;;;;11.98;3.38;;;;;;;12.95;69.44;101539.56;6334158;22;20078;-82
2023/01/22 12:23:27;;;;;;;12.98;4.00;;;;;;;12.82;70.04;101558.00;6283183;22;20008;-82
2023/01/22 12:26:31;;;;;;;19.77;4.07;;;;;;;12.96;70.17;101573.66;6282786;22;20051;-83
2023/01/22 12:29:09;;;;;;;12.60;3.95;;;;;;;13.04;70.88;101580.97;6240333;22;20129;-82
2023/01/22 12:31:42;;;;;;;17.67;4.35;;;;;;;12.95;71.04;101581.91;6336426;22;20017;-83
2023/01/22 12:34:59;;;;;;;19.20;3.88;;;;;;;12.68;71.72;101591.75;6283235;22;20021;-82
2023/01/22 12:37:27;;;;;;;13.77;3.80;;;;;;;12.49;72.40;101578.41;6288744;22;20010;-84
2023/01/22 12:40:22;;;;;;;14.68;3.88;;;;;;;12.59;72.41;101595.34;6258298;22;20002;-82
2023/01/22 12:42:59;;;;;;;13.27;3.53;;;;;;;12.61;72.66;101601.47;6307802;22;20394;-80
2023/01/22 12:45:27;;;;;;;13.02;3.58;;;;;;;12.44;73.09;101593.19;6308261;22;20003;-82
2023/01/22 12:47:58;;;;;;;11.63;3.42;;;;;;;12.33;73.38;101600.63;6335413;22;20125;-82
2023/01/22 12:50:26;;;;;;;17.50;5.00;;;;;;;12.29;73.57;101593.81;6308983;22;20022;-82
2023/01/22 12:53:04;;;;;;;21.60;4.47;;;;;;;12.24;73.80;101572.69;6308166;22;20034;-86
2023/01/22 12:55:40;;;;;;;13.95;4.75;;;;;;;12.32;74.12;101583.59;6282606;22;20060;-81
2023/01/22 12:58:27;;;;;;;15.60;4.15;;;;;;;12.52;73.39;101603.19;6310390;22;20465;-83
2023/01/22 13:01:11;;;;;;;15.90;4.30;;;;;;;12.68;73.33;101602.53;6305420;22;20471;-81
2023/01/22 13:03:38;;;;;;;17.55;5.28;;;;;;;12.61;73.53;101606.84;6335207;22;19998;-84
2023/01/22 13:06:29;;;;;;;19.77;4.35;;;;;;;12.37;73.56;101596.63;6308880;22;20072;-81
2023/01/22 13:08:55;;;;;;;16.50;4.00;;;;;;;12.18;73.60;101589.47;6279594;22;20015;-82
2023/01/22 13:11:37;;;;;;;16.45;4.28;;;;;;;12.25;74.30;101622.94;6336091;22;20385;-82
2023/01/22 13:14:25;;;;;;;17.45;4.65;;;;;;;12.32;74.41;101628.59;6307840;22;20303;-82
2023/01/22 13:17:03;;;;;;;14.75;4.22;;;;;;;12.23;74.36;101614.16;6307598;22;20445;-82
2023/01/22 13:19:35;;;;;;;21.63;5.13;;;;;;;12.20;74.31;101612.59;6281206;22;20129;-80
2023/01/22 13:22:02;;;;;;;15.93;4.22;;;;;;;12.22;74.33;101625.91;6309924;22;20001;-83
2023/01/22 13:24:31;;;;;;;13.90;4.40;;;;;;;11.90;75.49;101604.78;6286303;22;20086;-82
2023/01/22 13:27:01;;;;;;;13.85;4.85;;;;;;;11.94;75.76;101628.59;6311876;22;20010;-83
2023/01/22 13:29:35;;;;;;;17.60;5.45;;;;;;;12.08;75.10;101631.78;6336617;22;20018;-83
2023/01/22 13:32:30;;;;;;;17.60;5.35;;;;;;;11.91;75.43;101634.25;6282857;22;20029;-82
2023/01/22 13:35:03;;;;;;;19.65;4.88;;;;;;;11.84;75.81;101617.78;6332549;22;20423;-82
2023/01/22 13:37:40;;;;;;;20.48;5.18;;;;;;;11.80;75.95;101642.50;6256289;22;20041;-83
2023/01/22 13:40:28;;;;;;;14.15;4.40;;;;;;;11.81;75.76;101625.31;6309359;22;20030;-82
2023/01/22 13:43:05;;;;;;;13.57;4.20;;;;;;;11.64;76.03;101634.16;6335629;22;20439;-81
2023/01/22 13:45:34;;;;;;;19.20;4.97;;;;;;;11.75;76.21;101645.63;6288798;22;20009;-81
2023/01/22 13:48:05;;;;;;;16.42;5.90;;;;;;;11.53;76.90;101643.22;6335320;22;20011;-80
2023/01/22 13:50:31;;;;;;;18.48;5.53;;;;;;;11.44;76.89;101631.47;6258520;22;20006;-83
2023/01/22 13:52:58;;;;;;;16.02;6.03;;;;;;;11.53;76.56;101649.47;6306724;22;20022;-81
2023/01/22 13:55:25;;;;;;;25.48;5.13;;;;;;;11.33;77.11;101653.13;6335208;22;20018;-82
2023/01/22 13:57:56;;;;;;;18.33;5.38;;;;;;;11.20;78.02;101659.66;6282492;22;20003;-82
2023/01/22 14:00:29;;;;;;;12.27;4.65;;;;;;;11.32;77.89;101673.00;6333850;22;20002;-82
2023/01/22 14:03:02;;;;;;;15.98;4.43;;;;;;;11.33;77.78;101667.47;6280961;22;20433;-84
2023/01/22 14:05:32;;;;;;;12.57;4.88;;;;;;;11.18;78.02;101672.41;6335375;22;20125;-82
2023/01/22 14:08:14;;;;;;;17.70;4.88;;;;;;;10.88;79.13;101675.19;6282729;22;20356;-82
2023/01/22 14:10:42;;;;;;;15.48;5.30;;;;;;;10.88;79.40;101664.44;6283016;22;20007;-83
2023/01/22 14:13:31;;;;;;;17.48;5.15;;;;;;;10.93;79.49;101667.56;6282122;22;20312;-81
2023/01/22 14:16:05;;;;;;;20.80;5.07;;;;;;;10.76;79.75;101655.63;6312318;22;20009;-82
2023/01/22 14:18:32;;;;;;;16.55;4.97;;;;;;;10.84;79.36;101673.75;6282702;22;20003;-82
2023/01/22 14:21:01;;;;;;;19.83;5.65;;;;;;;10.81;79.58;101668.66;6282150;22;20009;-83
2023/01/22 14:23:27;;;;;;;17.08;5.03;;;;;;;10.91;79.53;101696.44;6281973;22;20018;-81
2023/01/22 14:25:53;;;;;;;18.88;5.72;;;;;;;10.90;79.74;101678.59;6281488;22;19994;-82
2023/01/22 14:28:20;;;;;;;19.50;5.50;;;;;;;10.89;79.48;101687.69;6306555;22;20021;-82
2023/01/22 14:30:48;;;;;;;16.25;5.32;;;;;;;10.86;79.65;101691.47;6256285;22;20009;-83
2023/01/22 14:33:19;;;;;;;16.38;5.70;;;;;;;11.01;79.70;101696.47;6290336;22;20331;-81
2023/01/22 14:35:47;;;;;;;16.27;5.35;;;;;;;10.82;79.36;101667.69;6290033;22;20007;-84
2023/01/22 14:38:22;;;;;;;11.73;5.40;;;;;;;10.71;79.38;101660.56;6308353;22;20009;-84
2023/01/22 14:40:48;;;;;;;20.08;6.22;;;;;;;10.69;79.72;101681.38;6308310;22;20005;-81
2023/01/22 14:43:19;;;;;;;18.05;5.10;;;;;;;10.73;79.43;101662.13;6282273;22;20015;-83
2023/01/22 14:45:48;;;;;;;18.02;5.57;;;;;;;10.65;79.55;101647.66;6307575;22;20014;-83
2023/01/22 14:48:21;;;;;;;20.00;6.00;;;;;;;10.65;80.43;101663.81;6300750;22;20011;-83
2023/01/22 14:50:47;;;;;;;19.23;5.82;;;;;;;10.91;80.03;101691.06;6269535;22;20065;-84
2023/01/22 14:53:13;;;;;;;;;;;;;;;10.94;80.10;101686.25;6194021;22;20035;-83
2023/01/22 14:55:38;;;;;;;18.90;6.05;;;;;;;10.70;79.93;101646.28;6244629;22;19938;-82
2023/01/22 14:58:14;;;;;;;19.60;6.28;;;;;;;10.87;80.11;101676.19;6193675;22;20011;-84
2023/01/22 15:00:43;;;;;;;16.80;6.18;;;;;;;10.90;80.22;101670.53;6260588;22;20014;-82
2023/01/22 15:03:10;;;;;;;20.83;6.60;;;;;;;10.98;80.29;101682.31;6245190;22;20004;-82
2023/01/22 15:05:37;;;;;;;18.98;6.15;;;;;;;10.83;80.53;101670.22;6244815;22;20008;-82
2023/01/22 15:08:03;;;;;;;16.83;6.47;;;;;;;10.90;80.41;101681.28;6244146;22;20090;-82
2023/01/22 15:10:30;;;;;;;18.55;5.90;;;;;;;10.64;80.42;101646.81;6244879;22;20031;-81
2023/01/22 15:13:20;;;;;;;19.38;5.80;;;;;;;10.82;80.77;101684.69;6220354;22;20007;-84
2023/01/22 15:15:47;;;;;;;16.77;6.43;;;;;;;10.71;80.63;101679.41;6244409;22;20010;-82
2023/01/22 15:18:13;;;;;;;16.92;5.60;;;;;;;10.73;80.55;101678.28;6242499;22;20019;-83
2023/01/22 15:20:39;;;;;;;18.98;5.88;;;;;;;10.77;80.31;101684.25;6241771;22;20392;-83
2023/01/22 15:23:04;;;;;;;19.88;6.45;;;;;;;10.75;80.82;101684.38;6243606;22;19999;-82
2023/01/22 15:25:31;;;;;;;18.92;6.10;;;;;;;10.69;80.38;101684.06;6218728;22;20000;-82
2023/01/22 15:27:57;;;;;;;17.92;5.68;;;;;;;10.58;80.04;101652.72;6243297;22;20020;-81
2023/01/22 15:30:25;;;;;;;15.65;5.43;;;;;;;10.80;80.18;101699.25;6267086;22;20086;-82
2023/01/22 15:32:52;;;;;;;12.85;5.38;;;;;;;10.75;80.03;101684.38;6243609;22;20018;-82
2023/01/22 15:35:19;;;;;;;16.52;5.07;;;;;;;10.67;80.19;101700.31;6269021;22;20377;-81
2023/01/22 15:37:46;;;;;;;13.88;4.65;;;;;;;10.57;80.46;101688.69;6243139;22;20046;-81
2023/01/22 15:40:13;;;;;;;14.38;5.00;;;;;;;10.61;80.73;101698.19;6244307;22;20007;-82
2023/01/22 15:42:39;;;;;;;15.23;5.00;;;;;;;10.62;81.19;101702.56;6193101;22;20003;-82
2023/01/22 15:45:10;;;;;;;17.50;5.32;;;;;;;10.43;81.41;101675.63;6218342;22;20028;-81
2023/01/22 15:47:36;;;;;;;18.95;5.80;;;;;;;10.58;81.29;101711.91;6248237;22;20358;-82
2023/01/22 15:50:03;;;;;;;20.08;6.05;;;;;;;10.55;81.32;101709.50;6281037;22;20412;-82
2023/01/22 15:52:28;;;;;;;14.98;5.63;;;;;;;10.47;81.12;101693.19;6280332;22;20003;-80
2023/01/22 15:54:54;;;;;;;21.00;5.68;;;;;;;10.52;81.50;101717.84;6306650;22;20005;-82
2023/01/22 15:57:20;;;;;;;18.63;6.03;;;;;;;10.33;81.96;101695.25;6280733;22;20141;-81
2023/01/22 15:59:50;;;;;;;17.90;5.65;;;;;;;10.39;81.87;101709.13;6333154;22;20037;-81
2023/01/22 16:02:19;;;;;;;17.23;5.82;;;;;;;10.44;82.12;101728.41;6336561;22;20361;-82
2023/01/22 16:04:46;;;;;;;20.55;5.97;;;;;;;10.41;82.24;101732.19;6312382;22;20063;-81
2023/01/22 16:07:13;;;;;;;21.27;5.78;;;;;;;10.32;83.01;101739.25;6310832;22;20385;-80
2023/01/22 16:09:39;;;;;;;14.90;5.47;;;;;;;10.30;83.22;101719.72;6290224;22;19998;-80
2023/01/22 16:12:05;;;;;;;14.93;5.93;;;;;;;10.32;83.20;101744.63;6283721;22;20007;-82
2023/01/22 16:14:31;;;;;;;18.30;6.28;;;;;;;10.33;83.21;101727.50;6283648;22;19999;-80
2023/01/22 16:16:59;;;;;;;17.27;6.03;;;;;;;10.26;83.22;101723.63;6308991;22;20063;-83
2023/01/22 16:19:30;;;;;;;21.50;7.85;;;;;;;10.37;83.01;101737.97;6309596;22;20027;-83
2023/01/22 16:21:56;;;;;;;22.88;7.07;;;;;;;10.23;83.19;101717.63;6283657;22;20059;-82
2023/01/22 16:24:26;;;;;;;18.88;6.35;;;;;;;10.20;83.13;101701.78;6326646;22;20009;-81
2023/01/22 16:26:55;;;;;;;17.75;6.57;;;;;;;10.34;83.19;101742.63;6308267;22;20003;-81
2023/01/22 16:29:25;;;;;;;19.75;6.90;;;;;;;10.28;82.97;101737.81;6284389;22;19999;-82
2023/01/22 16:31:57;;;;;;;19.05;6.40;;;;;;;10.25;82.76;101731.81;6309128;22;20007;-81
2023/01/22 16:34:26;;;;;;;25.15;6.85;;;;;;;10.14;83.30;101733.59;6310039;22;20025;-81
2023/01/22 16:37:46;;;;;;;14.90;5.95;;;;;;;10.06;83.09;101721.78;6308810;22;20390;-81
2023/01/22 16:40:16;;;;;;;15.88;6.15;;;;;;;10.09;83.33;101726.88;6336094;22;20002;-81
2023/01/22 16:42:58;;;;;;;15.63;6.80;;;;;;;10.28;83.44;101755.75;6310344;22;19999;-81
2023/01/22 16:45:29;;;;;;;14.68;6.30;;;;;;;10.27;83.34;101768.31;6307409;22;20450;-81
2023/01/22 16:47:56;;;;;;;17.08;7.00;;;;;;;10.21;83.55;101752.72;6303054;22;20038;-82
2023/01/22 16:50:28;;;;;;;20.88;7.03;;;;;;;10.24;83.72;101771.28;6309361;22;20014;-81
2023/01/22 16:52:55;;;;;;;18.15;6.93;;;;;;;10.15;84.05;101782.81;6327020;22;20007;-83
2023/01/22 16:55:21;;;;;;;20.10;8.10;;;;;;;10.02;84.66;101780.31;6281757;22;20423;-84
2023/01/22 16:57:47;;;;;;;18.98;7.25;;;;;;;9.97;84.47;101761.03;6335061;22;20086;-81
2023/01/22 17:00:13;;;;;;;18.35;7.10;;;;;;;10.02;84.79;101791.06;6307850;22;20335;-82
2023/01/22 17:02:38;;;;;;;18.45;7.53;;;;;;;10.07;84.36;101767.34;6308496;22;20059;-81
2023/01/22 17:05:05;;;;;;;22.65;6.80;;;;;;;10.13;83.81;101788.31;6282628;22;20011;-81
2023/01/22 17:07:35;;;;;;;19.75;6.63;;;;;;;10.01;83.00;101748.19;6335017;22;20005;-82
2023/01/22 17:10:01;;;;;;;17.85;6.78;;;;;;;10.08;83.29;101776.25;6308264;22;19999;-81
2023/01/22 17:12:27;;;;;;;17.45;6.78;;;;;;;10.27;82.92;101800.56;6307064;22;20018;-83
2023/01/22 17:14:55;;;;;;;18.50;7.00;;;;;;;10.19;82.96;101792.31;6281194;22;19999;-82
2023/01/22 17:17:21;;;;;;;21.67;7.10;;;;;;;10.10;83.55;101801.16;6306574;22;20473;-81
2023/01/22 17:19:48;;;;;;;15.82;6.97;;;;;;;10.04;83.29;101788.22;6334951;22;19995;-80
2023/01/22 17:22:14;;;;;;;16.25;6.50;;;;;;;10.14;83.70;101805.31;6308213;22;20431;-83
2023/01/22 17:24:41;;;;;;;18.08;6.60;;;;;;;10.21;83.21;101798.41;6283418;22;20006;-80
2023/01/22 17:27:07;;;;;;;18.63;7.78;;;;;;;10.09;83.37;101796.75;6282316;22;20455;-84
2023/01/22 17:29:33;;;;;;;21.38;7.15;;;;;;;10.05;83.21;101789.97;6282060;22;20026;-81
2023/01/22 17:32:01;;;;;;;14.18;6.28;;;;;;;9.98;83.43;101794.16;6282426;22;20007;-81
2023/01/22 17:34:26;;;;;;;17.70;6.38;;;;;;;9.97;83.24;101804.00;6282014;22;20010;-81
2023/01/22 17:36:55;;;;;;;18.95;6.25;;;;;;;9.85;83.53;101795.16;6307942;22;20140;-81
2023/01/22 17:39:21;;;;;;;13.63;6.55;;;;;;;9.86;84.06;101804.09;6282127;22;20285;-81
2023/01/22 17:41:46;;;;;;;;;;;;;;;9.86;83.79;101823.72;6335802;22;19999;-81
2023/01/22 17:44:16;;;;;;;15.70;6.68;;;;;;;9.51;84.39;101771.13;6335229;22;20303;-81
2023/01/22 17:46:41;;;;;;;14.95;6.32;;;;;;;9.71;84.27;101809.72;6332773;22;20003;-81
2023/01/22 17:49:09;;;;;;;19.73;6.05;;;;;;;9.59;84.52;101800.00;6306885;22;20006;-81
2023/01/22 17:51:37;;;;;;;18.05;6.90;;;;;;;9.60;85.11;101820.53;6281046;22;20009;-81
2023/01/22 17:54:05;;;;;;;19.58;6.60;;;;;;;9.58;85.09;101816.28;6281087;22;20061;-81